Time;durP1;ratioP1;P1;durP2;ratioP2;P2;SDS_P1;SDS_P2;PMS_P1;PMS_P2;Temp;Humidity;BMP_temperature;BMP_pressure;BME280_temperature;BME280_humidity;BME280_pressure;Samples;Min_cycle;Max_cycle;Signal;HPM_P1;HPM_P2
2022/03/07 00:00:22;;;;;;;2.88;1.17;;;;;;;;;;6248014;22;20094;-92
2022/03/07 00:19:36;;;;;;;5.60;1.50;;;;;;;;;;6301892;22;20030;-94
2022/03/07 00:22:21;;;;;;;6.22;1.67;;;;;;;;;;6278909;22;20039;-92
2022/03/07 00:33:21;;;;;;;6.82;2.13;;;;;;;;;;6287236;22;20055;-92
2022/03/07 00:36:25;;;;;;;;;;;;;;;;;;;;;
2022/03/07 00:39:35;;;;;;;8.32;2.20;;;;;;;;;;6282542;22;20026;-93
2022/03/07 00:51:04;;;;;;;5.05;1.77;;;;;;;;;;6251836;22;20021;-92
2022/03/07 00:53:46;;;;;;;3.08;2.40;;;;;;;;;;6242108;22;20105;-92
2022/03/07 01:09:55;;;;;;;5.28;1.95;;;;;;;;;;6225190;22;20038;-92
2022/03/07 01:15:59;;;;;;;5.75;2.13;;;;;;;;;;6271429;22;20027;-93
2022/03/07 01:18:52;;;;;;;4.00;1.80;;;;;;;;;;5571622;22;15043834;-92
2022/03/07 01:21:19;;;;;;;4.93;2.00;;;;;;;;;;6217836;23;20020;-92
2022/03/07 01:24:04;;;;;;;4.32;2.05;;;;;;;;;;6218783;23;20338;-92
2022/03/07 01:26:30;;;;;;;5.97;2.00;;;;;;;;;;6182335;23;20336;-92
2022/03/07 01:32:41;;;;;;;3.67;1.70;;;1.00;99.90;;;;;;6239899;22;20083;-93
2022/03/07 01:51:00;;;;;;;4.90;2.22;;;;;;;;;;6151185;23;20115;-91
2022/03/07 01:53:52;;;;;;;3.50;2.03;;;;;;;;;;6178386;22;20356;-92
2022/03/07 02:12:42;;;;;;;3.03;1.80;;;;;;;;;;6194746;23;20028;-91
2022/03/07 02:15:24;;;;;;;8.48;2.30;;;;;;;;;;6237824;23;20028;-92
2022/03/07 02:17:50;;;;;;;6.68;2.33;;;;;;;;;;6211261;23;20357;-93
2022/03/07 02:23:20;;;;;;;6.07;2.22;;;;;;;;;;6240572;22;20110;-93
2022/03/07 02:25:58;;;;;;;5.40;2.00;;;;;;;;;;6163389;23;20016;-93
2022/03/07 02:28:24;;;;;;;8.60;2.55;;;;;;;;;;6216221;23;20095;-92
2022/03/07 02:30:51;;;;;;;4.40;2.15;;;;;;;;;;6192614;22;20031;-93
2022/03/07 02:33:27;;;;;;;5.13;1.90;;;;;;;;;;6222603;23;20074;-94
2022/03/07 02:35:56;;;;;;;4.78;2.42;;;;;;;;;;6214705;23;20464;-92
2022/03/07 02:51:33;;;;;;;8.68;2.33;;;;;;;;;;6214946;23;20063;-93
2022/03/07 02:57:03;;;;;;;4.25;2.13;;;;;;;;;;6237820;23;20036;-92
2022/03/07 02:59:45;;;;;;;5.10;2.00;;;;;;;;;;6187170;23;20024;-92
2022/03/07 03:02:11;;;;;;;5.43;2.00;;;;;;;;;;6164401;23;20444;-92
2022/03/07 03:04:46;;;;;;;4.05;2.20;;;;;;;;;;6238144;23;20020;-92
2022/03/07 03:07:28;;;;;;;5.88;1.90;;;;;;;;;;6188677;23;20028;-93
2022/03/07 03:09:55;;;;;;;3.33;2.22;;;;;;;;;;6188800;23;20020;-91
2022/03/07 03:15:10;;;;;;;5.10;2.33;;;;;;;;;;6211281;23;20024;-93
2022/03/07 03:17:55;;;;;;;7.18;2.40;;;;;;;;;;6157218;23;20389;-93
2022/03/07 03:20:21;;;;;;;;;;;0.30;99.90;;;;;;6164304;23;20449;-93
2022/03/07 03:29:00;;;;;;;5.10;1.70;;;;;;;;;;6155661;23;20024;-94
2022/03/07 03:34:17;;;;;;;3.28;2.03;;;;;;;;;;6235642;23;20033;-92
2022/03/07 03:36:47;;;;;;;7.78;2.58;;;;;;;;;;6158527;23;20020;-92
2022/03/07 03:39:19;;;;;;;4.07;2.58;;;;;;;;;;6185436;23;20855;-92
2022/03/07 03:42:16;;;;;;;4.88;2.40;;;0.00;99.90;;;;;;6160471;23;20540;-93
2022/03/07 03:53:18;;;;;;;6.90;2.50;;;;;;;;;;6190540;23;20333;-91
2022/03/07 03:55:44;;;;;;;6.38;2.42;;;;;;;;;;6118925;23;20634;-93
2022/03/07 03:58:23;;;;;;;8.43;3.15;;;;;;;;;;6094317;23;20022;-93
2022/03/07 04:04:09;;;;;;;4.13;2.40;;;;;;;;;;6218066;22;20059;-92
2022/03/07 04:29:15;;;;;;;6.18;3.20;;;;;;;;;;6208589;22;20035;-93
2022/03/07 04:32:17;;;;;;;5.53;2.72;;;;;;;;;;6155924;23;20028;-91
2022/03/07 04:34:43;;;;;;;11.30;3.42;;;;;;;;;;6178846;23;20032;-89
2022/03/07 04:41:12;;;;;;;7.03;3.30;;;;;;;;;;6198795;22;20681;-93
2022/03/07 04:54:04;;;;;;;6.43;3.28;;;0.00;99.90;;;;;;6210576;22;20098;-92
2022/03/07 05:16:33;;;;;;;7.60;3.10;;;;;;;;;;6229206;22;19926;-95
2022/03/07 05:33:06;;;;;;;5.40;3.78;;;;;;;;;;6244205;22;20848;-93
2022/03/07 05:38:57;;;;;;;7.97;2.92;;;;;;;;;;6169115;22;20047;-91
2022/03/07 05:44:25;;;;;;;7.88;3.22;;;;;;;;;;6247020;22;20051;-93
2022/03/07 05:47:00;;;;;;;6.90;3.60;;;;;;;;;;6222066;22;20046;-93
2022/03/07 05:49:26;;;;;;;7.32;3.40;;;;;;;;;;6187431;23;20025;-90
2022/03/07 05:52:04;;;;;;;6.82;3.58;;;;;;;;;;6180441;23;20074;-93
2022/03/07 05:54:31;;;;;;;6.88;3.50;;;;;;;;;;6187599;23;20103;-90
2022/03/07 05:57:06;;;;;;;8.05;4.15;;;;;;;;;;6187979;23;20435;-89
2022/03/07 06:05:47;;;;;;;5.95;4.68;;;;;;;;;;6246982;22;20040;-90
2022/03/07 06:12:26;;;;;;;5.72;3.42;;;;;;;;;;6242336;22;20086;-91
2022/03/07 06:14:53;;;;;;;9.85;4.45;;;;;;;;;;6218648;23;20162;-90
2022/03/07 06:17:22;;;;;;;19.42;5.15;;;;;;;;;;6221270;23;20020;-90
2022/03/07 06:20:04;;;;;;;5.97;4.70;;;;;;;;;;6219695;23;20059;-90
2022/03/07 06:29:36;;;;;;;9.35;5.10;;;;;;;;;;6213927;23;20107;-92
2022/03/07 06:32:23;;;;;;;14.48;5.70;;;;;;;;;;6183596;23;20025;-91
2022/03/07 06:37:53;;;;;;;14.00;5.63;;;;;;;;;;6239158;23;20035;-90
2022/03/07 06:53:12;;;;;;;10.13;5.87;;;;;;;;;;6221142;22;20085;-90
2022/03/07 07:03:15;;;;;;;15.48;5.80;;;;;;;;;;6241560;23;20113;-91
2022/03/07 07:08:37;;;;;;;10.68;5.70;;;;;;;;;;6163349;23;20373;-91
2022/03/07 07:11:46;;;;;;;10.82;5.45;;;;;;;;;;6153841;23;20082;-90
2022/03/07 07:14:21;;;;;;;6.55;5.60;;;;;;;;;;6157486;23;20017;-91
2022/03/07 07:16:57;;;;;;;15.85;6.45;;;;;;;;;;6216918;23;20063;-91
2022/03/07 07:19:23;;;;;;;9.18;5.63;;;;;;;;;;6190992;23;20020;-90
2022/03/07 07:21:51;;;;;;;8.90;5.95;;;;;;;;;;6216705;23;20107;-92
2022/03/07 07:24:28;;;;;;;13.43;6.32;;;;;;;;;;6192214;23;20113;-91
2022/03/07 07:27:11;;;;;;;9.85;5.82;;;;;;;;;;6192464;23;20462;-90
2022/03/07 07:30:10;;;;;;;18.30;8.07;;;;;;;;;;6210918;23;20031;-90
2022/03/07 07:36:12;;;;;;;15.20;8.03;;;;;;;;;;6188194;23;20080;-91
2022/03/07 07:39:00;;;;;;;10.82;6.13;;;;;;;;;;6234875;23;20103;-91
2022/03/07 07:41:26;;;;;;;14.95;6.95;;;;;;;;;;6237354;23;20107;-90
2022/03/07 07:43:55;;;;;;;8.30;6.13;;;;;;;;;;6238764;23;20624;-91
2022/03/07 08:18:08;;;;;;;16.40;5.50;;;;;;;;;;6249240;22;20370;-90
2022/03/07 08:46:41;;;;;;;10.57;3.08;;;;;;;;;;6240376;23;20789;-90
2022/03/07 08:49:38;;;;;;;9.68;3.15;;;;;;;;;;6238004;23;20043;-90
2022/03/07 08:52:39;;;;;;;9.93;3.45;;;;;;;;;;6211231;23;20396;-90
2022/03/07 08:58:22;;;;;;;10.85;3.47;;;;;;;;;;6210758;23;20103;-90
2022/03/07 09:04:10;;;;;;;8.32;3.03;;;;;;;;;;6238152;22;20023;-89
2022/03/07 09:06:37;;;;;;;9.80;3.03;;;;;;;;;;6196175;23;20020;-89
2022/03/07 09:12:54;;;;;;;15.05;3.58;;;;;;;;;;6241895;23;20019;-91
2022/03/07 09:15:20;;;;;;;12.38;3.65;;;;;;;;;;6213539;23;20024;-89
2022/03/07 09:17:52;;;;;;;8.85;3.70;;;;;;;;;;6244087;23;20031;-91
2022/03/07 09:23:54;;;;;;;10.45;3.10;;;;;;;;;;6241931;23;20081;-92
2022/03/07 09:26:21;;;;;;;10.15;3.20;;;;;;;;;;6242311;23;20020;-90
2022/03/07 09:29:10;;;;;;;8.50;3.00;;;;;;;;;;6219707;23;20099;-90
2022/03/07 09:31:49;;;;;;;9.60;3.55;;;;;;;;;;6218074;23;20023;-90
2022/03/07 09:34:34;;;;;;;16.00;2.80;;;;;;;;;;6243008;23;20055;-90
2022/03/07 09:37:10;;;;;;;8.23;2.85;;;;;;;;;;6216600;23;20023;-90
2022/03/07 09:40:06;;;;;;;8.90;2.97;;;;;;;;;;6215503;23;20445;-91
2022/03/07 09:46:32;;;;;;;12.13;3.17;;;;;;;;;;6243456;23;20047;-90
2022/03/07 09:52:22;;;;;;;10.65;2.22;;;;;;;;;;6222441;23;20020;-89
2022/03/07 09:55:37;;;;;;;17.98;2.58;;;5.90;99.90;;;;;;6168442;23;20022;-91
2022/03/07 09:58:05;;;;;;;11.77;2.35;;;;;;;;;;6214520;23;20039;-93
2022/03/07 10:33:10;;;;;;;5.07;1.77;;;;;;;;;;6266956;22;20037;-91
2022/03/07 10:35:37;;;;;;;13.18;2.40;;;;;;;;;;6242287;22;20043;-93
2022/03/07 10:45:05;;;;;;;12.32;1.90;;;;;;;;;;6176680;23;20020;-90
2022/03/07 10:47:49;;;;;;;6.07;1.73;;;;;;;;;;6149080;23;20032;-91
2022/03/07 10:50:46;;;;;;;4.72;1.50;;;;;;;;;;6177367;23;20628;-91
2022/03/07 11:05:56;;;;;;;6.00;1.42;;;;;;;;;;6244482;22;20002;-92
2022/03/07 11:08:52;;;;;;;8.27;1.42;;;;;;;;;;6200090;23;20020;-91
2022/03/07 11:11:52;;;;;;;7.60;1.20;;;;;;;;;;6048067;23;20018;-92
2022/03/07 11:20:38;;;;;;;8.38;1.73;;;;;;;;;;6235893;22;20095;-92
2022/03/07 11:29:49;;;;;;;7.05;1.60;;;;;;;;;;6241425;22;20015;-92
2022/03/07 11:35:45;;;;;;;9.00;1.75;;;;;;;;;;6279695;22;20083;-93
2022/03/07 11:44:50;;;;;;;7.45;1.85;;;;;;;;;;6220214;22;20101;-91
2022/03/07 11:47:46;;;;;;;6.35;2.05;;;;;;;;;;6212316;23;20074;-91
2022/03/07 12:14:53;;;;;;;6.53;1.95;;;;;;;;;;6271564;22;20046;-91
2022/03/07 12:33:54;;;;;;;6.10;1.98;;;;;;;;;;6198479;22;20049;-95
2022/03/07 12:49:44;;;;;;;5.57;2.15;;;;;;;;;;6182108;23;20024;-92
2022/03/07 13:12:17;;;;;;;3.83;1.77;;;;;;;;;;6207807;22;20100;-93
2022/03/07 13:14:43;;;;;;;6.80;2.13;;;;;;;;;;6187191;23;20024;-92
2022/03/07 13:23:48;;;;;;;6.38;1.90;;;;;;;;;;6261990;22;20471;-93
2022/03/07 13:26:26;;;;;;;4.45;2.30;;;;;;;;;;6222103;22;20023;-93
2022/03/07 13:29:09;;;;;;;5.45;2.20;;;;;;;;;;6220517;22;20030;-93
2022/03/07 13:31:58;;;;;;;5.40;1.90;;;;;;;;;;6215340;22;20030;-94
2022/03/07 13:45:46;;;;;;;3.95;1.80;;;;;;;;;;6183255;23;20100;-92
2022/03/07 13:48:13;;;;;;;2.75;1.52;;;;;;;;;;6151729;23;20063;-92
2022/03/07 13:50:45;;;;;;;10.88;2.10;;;;;;;;;;6150916;23;20456;-93
2022/03/07 13:59:32;;;;;;;4.43;1.77;;;;;;;;;;6121580;23;20028;-94
2022/03/07 14:10:18;;;;;;;5.63;1.90;;;;;;;;;;6240404;22;20097;-92
2022/03/07 14:13:06;;;;;;;5.68;1.90;;;;;;;;;;6245699;22;20339;-92
2022/03/07 14:15:54;;;;;;;4.50;1.80;;;;;;;;;;6244813;22;20353;-92
2022/03/07 14:41:07;;;;;;;6.03;2.53;;;;;;;;;;6233157;22;20109;-91
2022/03/07 14:43:36;;;;;;;4.45;2.30;;;;;;;;;;6217944;22;20026;-91
2022/03/07 14:46:05;;;;;;;7.80;2.40;;;;;;;;;;6214660;23;20024;-91
2022/03/07 15:19:22;;;;;;;3.67;2.22;;;;;;;;;;6186081;23;20080;-87
2022/03/07 15:21:53;;;;;;;7.50;2.53;;;;;;;;;;6178455;23;20501;-88
2022/03/07 15:24:20;;;;;;;4.50;2.20;;;;;;;;;;6178212;23;20025;-87
2022/03/07 15:27:04;;;;;;;6.03;2.42;;;;;;;;;;6155329;23;20021;-89
2022/03/07 15:35:19;;;;;;;6.40;2.42;;;;;;;;;;6248921;22;20024;-87
2022/03/07 15:54:44;;;;;;;7.57;2.38;;;;;;;;;;6153576;23;20399;-88
2022/03/07 15:57:10;;;;;;;7.70;3.20;;;;;;;;;;6150685;23;20121;-86
2022/03/07 15:59:36;;;;;;;7.32;3.08;;;;;;;;;;6150449;23;20021;-87
2022/03/07 16:02:02;;;;;;;4.60;2.75;;;;;;;;;;6171462;23;20104;-89
2022/03/07 16:04:29;;;;;;;7.05;3.00;;;;;;;;;;6150956;23;20058;-87
2022/03/07 16:07:11;;;;;;;6.82;3.13;;;;;;;;;;6125966;23;20521;-88
2022/03/07 16:09:39;;;;;;;8.52;3.35;;;;;;;;;;6176886;23;20044;-88
2022/03/07 16:12:06;;;;;;;9.23;3.17;;;;;;;;;;6151738;23;20040;-88
2022/03/07 16:14:32;;;;;;;7.78;3.50;;;;;;;;;;6176892;23;20052;-87
2022/03/07 16:17:16;;;;;;;7.13;3.70;;;;;;;;;;6151286;23;20017;-87
2022/03/07 16:19:43;;;;;;;5.13;2.90;;;;;;;;;;6177879;23;20032;-88
2022/03/07 16:22:20;;;;;;;7.53;3.85;;;;;;;;;;6153373;23;20021;-87
2022/03/07 16:25:00;;;;;;;8.52;3.70;;;;;;;;;;6177945;23;20483;-88
2022/03/07 16:27:44;;;;;;;9.52;3.53;;;;;;;;;;6178058;23;20104;-87
2022/03/07 16:30:17;;;;;;;;;;;;;;;;;;6176036;23;20021;-85
2022/03/07 16:33:02;;;;;;;8.73;2.90;;;;;;;;;;6175320;23;20292;-86
2022/03/07 16:35:28;;;;;;;8.82;5.35;;;;;;;;;;6149165;23;20021;-86
2022/03/07 16:37:54;;;;;;;14.60;6.65;;;;;;;;;;6150025;23;20017;-86
2022/03/07 16:40:26;;;;;;;10.50;5.60;;;;;;;;;;6175270;23;20021;-87
2022/03/07 16:42:52;;;;;;;9.85;4.18;;;;;;;;;;6151326;23;20028;-86
2022/03/07 16:45:19;;;;;;;8.57;3.80;;;;;;;;;;6125288;23;20024;-86
2022/03/07 16:47:45;;;;;;;7.15;3.67;;;;;;;;;;6151374;23;20155;-86
2022/03/07 16:50:13;;;;;;;6.70;3.60;;;;;;;;;;6106987;23;20418;-86
2022/03/07 16:52:39;;;;;;;15.80;4.53;;;;;;;;;;6117484;23;20029;-87
2022/03/07 16:55:07;;;;;;;8.85;4.00;;;;;;;;;;6117855;23;20485;-88
2022/03/07 16:57:33;;;;;;;10.40;3.70;;;;;;;;;;6116645;23;20540;-86
2022/03/07 16:59:59;;;;;;;6.75;3.55;;;;;;;;;;6142242;23;20026;-87
2022/03/07 17:02:25;;;;;;;9.40;5.35;;;;;;;;;;6143727;23;20489;-86
2022/03/07 17:07:27;;;;;;;12.82;4.43;;;;;;;;;;6146507;23;20025;-86
2022/03/07 17:10:00;;;;;;;13.55;4.43;;;;;;;;;;6146041;23;20111;-85
2022/03/07 17:12:33;;;;;;;9.10;3.63;;;;;;;;;;6148259;23;20435;-87
2022/03/07 17:14:59;;;;;;;9.05;3.30;;;;;;;;;;6094379;23;20780;-88
2022/03/07 17:17:25;;;;;;;4.95;3.45;;;;;;;;;;6145726;23;20030;-87
2022/03/07 17:19:52;;;;;;;10.40;5.28;;;;;;;;;;6145457;23;20401;-87
2022/03/07 17:22:18;;;;;;;11.40;4.95;;;;;;;;;;6119952;23;20350;-86
2022/03/07 17:24:50;;;;;;;9.65;4.38;;;;;;;;;;6120214;23;20081;-86
2022/03/07 17:32:57;;;;;;;7.75;4.50;;;;;;;;;;6118987;23;20081;-86
2022/03/07 17:35:23;;;;;;;7.30;4.28;;;;;;;;;;6066957;23;20358;-87
2022/03/07 17:37:55;;;;;;;12.90;4.50;;;;;;;;;;6117636;23;20024;-86
2022/03/07 17:40:35;;;;;;;10.18;5.03;;;;;;;;;;6065850;23;20485;-87
2022/03/07 17:46:15;;;;;;;8.77;4.95;;;;;;;;;;6116233;23;20037;-86
2022/03/07 17:48:52;;;;;;;9.35;6.10;;;;;;;;;;6067463;23;20408;-86
2022/03/07 17:51:18;;;;;;;9.23;5.60;;;;;;;;;;6116193;23;20026;-87
2022/03/07 17:54:09;;;;;;;9.05;4.72;;;;;;;;;;6077999;22;20068;-86
2022/03/07 17:56:35;;;;;;;11.95;5.30;;;;;;;;;;6205486;23;20025;-87
2022/03/07 17:59:02;;;;;;;14.85;6.78;;;;;;;;;;6204928;23;20519;-86
2022/03/07 18:01:28;;;;;;;11.60;8.45;;;;;;;;;;6178520;23;20029;-87
2022/03/07 18:03:55;;;;;;;9.27;7.18;;;;;;;;;;6155376;23;20012;-87
2022/03/07 18:09:57;;;;;;;7.00;4.95;;;;;;;;;;6180314;23;20040;-87
2022/03/07 18:12:24;;;;;;;6.80;4.47;;;;;;;;;;6184801;23;20024;-86
2022/03/07 18:14:53;;;;;;;5.35;3.00;;;;;;;;;;6173116;23;20107;-87
2022/03/07 18:17:22;;;;;;;5.40;2.60;;;;;;;;;;6164457;23;20016;-86
2022/03/07 18:19:48;;;;;;;3.78;2.35;;;;;;;;;;6181400;23;20021;-87
2022/03/07 18:22:18;;;;;;;2.97;2.15;;;;;;;;;;6185983;23;20021;-86
2022/03/07 18:24:47;;;;;;;6.45;3.90;;;;;;;;;;6157794;23;20031;-86
2022/03/07 18:33:39;;;;;;;5.68;2.50;;;;;;;;;;6236316;23;20055;-87
2022/03/07 18:36:06;;;;;;;8.52;2.38;;;;;;;;;;6182940;23;20027;-85
2022/03/07 18:38:32;;;;;;;3.47;2.15;;;;;;;;;;6236974;23;20054;-84
2022/03/07 18:41:07;;;;;;;3.97;2.58;;;;;;;;;;6207727;23;20016;-84
2022/03/07 18:43:41;;;;;;;5.78;3.25;;;;;;;;;;6140418;23;20340;-85
2022/03/07 18:46:17;;;;;;;14.48;5.10;;;;;;;;;;6185791;23;20031;-88
2022/03/07 18:48:47;;;;;;;7.05;3.78;;;;;;;;;;6236315;23;20020;-86
2022/03/07 18:51:13;;;;;;;6.15;3.20;;;;;;;;;;6207913;23;20028;-86
2022/03/07 18:53:39;;;;;;;10.82;4.10;;;;;;;;;;6162287;23;20054;-85
2022/03/07 18:56:05;;;;;;;5.07;2.78;;;;;;;;;;6184548;23;20032;-86
2022/03/07 18:58:41;;;;;;;6.93;3.25;;;;;;;;;;6213218;23;20172;-88
2022/03/07 19:01:33;;;;;;;6.85;3.05;;;;;;;;;;6180221;22;20020;-88
2022/03/07 19:04:00;;;;;;;5.43;2.60;;;;;;;;;;6176951;23;20032;-87
2022/03/07 19:06:29;;;;;;;6.47;2.42;;;;;;;;;;6206471;23;20026;-87
2022/03/07 19:09:12;;;;;;;3.47;2.60;;;;;;;;;;6234755;23;20012;-87
2022/03/07 19:12:27;;;;;;;3.92;2.63;;;;;;;;;;6178873;23;20020;-87
2022/03/07 19:15:08;;;;;;;4.50;2.53;;;;;;;;;;6209191;23;20643;-87
2022/03/07 19:17:58;;;;;;;4.03;2.53;;;;;;;;;;6210245;22;20043;-87
2022/03/07 19:24:22;;;;;;;2.70;2.20;;;;;;;;;;6235202;23;20099;-87
2022/03/07 19:30:50;;;;;;;3.30;2.33;;;;;;;;;;6238114;23;20114;-89
2022/03/07 19:33:41;;;;;;;3.63;2.70;;;;;;;;;;6243081;23;20020;-86
2022/03/07 19:36:25;;;;;;;4.70;2.25;;;;;;;;;;6215963;23;20028;-86
2022/03/07 19:39:27;;;;;;;6.43;4.22;;;;;;;;;;6172718;23;20060;-87
2022/03/07 19:41:55;;;;;;;7.85;3.80;;;;;;;;;;6171726;23;20055;-86
2022/03/07 19:44:22;;;;;;;2.83;2.45;;;;;;;;;;6146583;23;20017;-88
2022/03/07 19:46:48;;;;;;;3.72;2.35;;;;;;;;;;6097060;23;20536;-87
2022/03/07 19:49:14;;;;;;;4.75;2.38;;;;;;;;;;6122226;23;20092;-87
2022/03/07 19:51:50;;;;;;;3.15;2.55;;;;;;;;;;6172606;23;20059;-86
2022/03/07 19:54:17;;;;;;;4.90;2.30;;;;;;;;;;6144885;23;20021;-89
2022/03/07 19:56:49;;;;;;;5.32;2.42;;;;;;;;;;6123927;23;20025;-86
2022/03/07 19:59:15;;;;;;;5.80;2.72;;;;;;;;;;6141166;23;20016;-88
2022/03/07 20:09:51;;;;;;;3.17;2.88;;;;;;;;;;6235757;23;20027;-86
2022/03/07 20:12:48;;;;;;;5.75;3.85;;;;;;;;;;6146509;23;20021;-86
2022/03/07 20:15:43;;;;;;;5.75;4.65;;;;;;;;;;6148018;23;20099;-88
2022/03/07 20:18:12;;;;;;;7.25;5.32;;;;;;;;;;6174584;23;20021;-88
2022/03/07 20:20:38;;;;;;;6.60;5.13;;;;;;;;;;6128136;23;20029;-87
2022/03/07 20:23:05;;;;;;;6.43;5.00;;;;;;;;;;6182477;23;20047;-86
2022/03/07 20:25:37;;;;;;;7.07;4.50;;;;;;;;;;6193385;23;20135;-86
2022/03/07 20:28:03;;;;;;;7.05;4.07;;;;;;;;;;6173606;23;20081;-87
2022/03/07 20:30:29;;;;;;;10.55;4.75;;;;;;;;;;6185274;23;20028;-86
2022/03/07 20:33:02;;;;;;;5.35;4.85;;;;;;;;;;6127822;23;20024;-86
2022/03/07 20:35:35;;;;;;;6.65;5.03;;;;;;;;;;6149812;23;20426;-88
2022/03/07 20:38:08;;;;;;;7.60;5.10;;;;;;;;;;6173904;23;20082;-87
2022/03/07 20:40:40;;;;;;;5.32;4.47;;;;;;;;;;6173183;23;20060;-87
2022/03/07 20:43:06;;;;;;;7.38;5.60;;;;;;;;;;6175232;23;20461;-86
2022/03/07 20:45:32;;;;;;;14.05;8.25;;;;;;;;;;6144796;23;20025;-86
2022/03/07 20:48:05;;;;;;;23.02;12.13;;;;;;;;;;6179619;23;20048;-87
2022/03/07 20:50:34;;;;;;;13.82;8.23;;;;;;;;;;6171162;23;20103;-88
2022/03/07 20:53:00;;;;;;;8.27;5.88;;;;;;;;;;6124139;23;20032;-86
2022/03/07 20:55:33;;;;;;;6.85;5.90;;;;;;;;;;6173059;23;20017;-87
2022/03/07 20:57:59;;;;;;;7.85;6.45;;;;;;;;;;6174041;23;20080;-87
2022/03/07 21:00:25;;;;;;;9.30;6.60;;;;;;;;;;6145788;23;20100;-86
2022/03/07 21:02:57;;;;;;;10.88;6.18;;;;;;;;;;6149000;23;20540;-87
2022/03/07 21:05:23;;;;;;;7.82;5.72;;;;;;;;;;6147433;23;20124;-87
2022/03/07 21:07:50;;;;;;;7.18;5.78;;;;;;;;;;6147503;23;20075;-87
2022/03/07 21:10:22;;;;;;;10.30;5.80;;;;;;;;;;6171039;23;20032;-87
2022/03/07 21:12:48;;;;;;;8.00;5.57;;;;;;;;;;6176645;23;20080;-87
2022/03/07 21:15:23;;;;;;;7.45;5.80;;;;;;;;;;6171851;23;20076;-86
2022/03/07 21:17:49;;;;;;;13.02;7.80;;;;;;;;;;6172220;23;20107;-86
2022/03/07 21:20:16;;;;;;;10.30;5.93;;;;;;;;;;6120719;23;20046;-86
2022/03/07 21:22:42;;;;;;;9.90;6.75;;;;;;;;;;6171853;23;20096;-86
2022/03/07 21:25:16;;;;;;;7.88;6.25;;;;;;;;;;6121457;23;20025;-88
2022/03/07 21:27:43;;;;;;;14.40;6.85;;;;;;;;;;6175997;23;20025;-86
2022/03/07 21:30:13;;;;;;;9.50;5.82;;;;;;;;;;6153623;23;20036;-87
2022/03/07 21:32:40;;;;;;;10.70;6.63;;;;;;;;;;6176727;23;20117;-86
2022/03/07 21:35:26;;;;;;;9.45;6.03;;;;;;;;;;6178764;23;20021;-86
2022/03/07 21:38:11;;;;;;;8.68;6.60;;;;;;;;;;6187251;23;20095;-85
2022/03/07 21:40:52;;;;;;;8.70;5.40;;;;;;;;;;6178296;23;20083;-86
2022/03/07 21:43:18;;;;;;;8.80;5.80;;;;;;;;;;6179280;23;20021;-86
2022/03/07 21:45:54;;;;;;;9.20;6.40;;;;;;;;;;6151853;23;20017;-87
2022/03/07 21:48:30;;;;;;;10.68;5.90;;;;;;;;;;6177566;23;20024;-86
2022/03/07 21:50:56;;;;;;;11.55;6.13;;;;;;;;;;6149968;23;20084;-86
2022/03/07 21:53:23;;;;;;;7.63;6.03;;;;;;;;;;6176793;23;20028;-87
2022/03/07 21:56:01;;;;;;;8.85;6.38;;;;;;;;;;6176217;23;20021;-87
2022/03/07 22:02:38;;;;;;;7.50;5.10;;;;;;;;;;6239185;22;20020;-88
2022/03/07 22:05:08;;;;;;;12.18;5.85;;;;;;;;;;6268905;22;20122;-85
2022/03/07 22:07:34;;;;;;;10.63;6.13;;;;;;;;;;6266586;22;20020;-86
2022/03/07 22:10:03;;;;;;;7.55;5.75;;;;;;;;;;6243434;22;20016;-87
2022/03/07 22:12:32;;;;;;;8.00;5.35;;;;;;;;;;6215740;22;20415;-87
2022/03/07 22:14:59;;;;;;;6.88;5.18;;;;;;;;;;6190907;22;20020;-87
2022/03/07 22:17:31;;;;;;;6.95;5.15;;;;;;;;;;6243842;22;20027;-87
2022/03/07 22:20:18;;;;;;;5.53;4.93;;;;;;;;;;6255537;22;20045;-88
2022/03/07 22:22:44;;;;;;;6.63;5.10;;;;;;;;;;6243476;22;20020;-87
2022/03/07 22:25:11;;;;;;;6.47;4.90;;;;;;;;;;6271651;22;20020;-88
2022/03/07 22:27:47;;;;;;;6.43;5.10;;;;;;;;;;6241077;22;20089;-86
2022/03/07 22:30:13;;;;;;;6.57;5.00;;;;;;;;;;6219365;22;20499;-86
2022/03/07 22:32:39;;;;;;;5.78;5.00;;;;;;;;;;6241825;22;20023;-87
2022/03/07 22:35:05;;;;;;;8.45;5.35;;;;;;;;;;6245137;22;20011;-88
2022/03/07 22:37:35;;;;;;;7.20;5.30;;;;;;;;;;6226839;22;20063;-86
2022/03/07 22:40:14;;;;;;;6.13;5.15;;;;;;;;;;6266189;22;20015;-88
2022/03/07 22:42:40;;;;;;;8.73;4.28;;;;;;;;;;6290773;22;20628;-87
2022/03/07 22:45:22;;;;;;;5.95;4.70;;;;;;;;;;6248967;22;20012;-88
2022/03/07 22:47:55;;;;;;;7.97;4.68;;;;;;;;;;6244964;22;20012;-86
2022/03/07 22:50:21;;;;;;;5.17;4.30;;;;;;;;;;6242456;22;20533;-87
2022/03/07 22:52:48;;;;;;;5.32;4.32;;;;;;;;;;6237299;22;20028;-87
2022/03/07 22:55:24;;;;;;;9.57;4.70;;;;;;;;;;6241329;22;20077;-88
2022/03/07 22:57:50;;;;;;;6.22;4.50;;;;;;;;;;6266491;22;20022;-87
2022/03/07 23:00:21;;;;;;;5.03;4.10;;;;;;;;;;6224273;22;20054;-87
2022/03/07 23:02:53;;;;;;;5.93;4.28;;;;;;;;;;6267260;22;20420;-87
2022/03/07 23:08:04;;;;;;;4.88;4.28;;;;;;;;;;6238986;22;20026;-86
2022/03/07 23:10:36;;;;;;;10.07;4.88;;;;;;;;;;6214272;22;20066;-89
2022/03/07 23:13:02;;;;;;;5.30;4.47;;;;;;;;;;6239880;22;20653;-88
2022/03/07 23:15:28;;;;;;;6.97;4.97;;;;;;;;;;6237253;22;20023;-87
2022/03/07 23:17:57;;;;;;;6.38;4.18;;;;;;;;;;6268423;22;20444;-86
2022/03/07 23:20:33;;;;;;;6.60;3.80;;;;;;;;;;6213017;22;20030;-88
2022/03/07 23:22:59;;;;;;;4.00;3.47;;;;;;;;;;6241072;22;20055;-88
2022/03/07 23:25:25;;;;;;;3.22;2.92;;;;;;;;;;6264845;22;20020;-87
2022/03/07 23:27:51;;;;;;;2.75;2.55;;;;;;;;;;6267892;22;20833;-87
2022/03/07 23:30:19;;;;;;;5.45;2.70;;;;;;;;;;6264714;22;20110;-87
2022/03/07 23:32:47;;;;;;;4.50;2.95;;;;;;;;;;6239946;22;20031;-88
2022/03/07 23:35:14;;;;;;;5.45;3.33;;;;;;;;;;6211852;22;20506;-88
2022/03/07 23:37:40;;;;;;;4.72;3.20;;;;;;;;;;6238773;22;20066;-88
2022/03/07 23:40:08;;;;;;;4.60;3.50;;;;;;;;;;6264588;22;20098;-88
2022/03/07 23:42:34;;;;;;;6.00;4.07;;;;;;;;;;6237901;22;20023;-88
2022/03/07 23:45:02;;;;;;;4.90;3.17;;;;;;;;;;6263710;22;20542;-87
2022/03/07 23:47:28;;;;;;;4.50;3.17;;;;;;;;;;6266761;22;20431;-88
2022/03/07 23:49:57;;;;;;;5.00;3.22;;;;;;;;;;6238189;22;20028;-88
2022/03/07 23:52:32;;;;;;;3.00;2.70;;;;;;;;;;6265600;22;20037;-88
2022/03/07 23:55:08;;;;;;;3.05;2.60;;;;;;;;;;6188308;22;20015;-87
2022/03/07 23:57:34;;;;;;;2.65;2.42;;;;;;;;;;6213796;22;20404;-87
